Airfield :
LOGIN :

Register | Disclaimer

   EN    FR    IT 

 










Legend :    VFR   Marginal VFR   IFR   Intensive IFR   Very Intensive IFR
Visi :
Ceiling :
>= 8 km
>= 3000ft
5 to 8 km
1000 to 3000 ft
1500m to 5 km
500 to 1000 ft
800 to 1500m
200 to 500 ft
< 800m
< 200 ft
Symbols :   Thunderstorms  Fog  Heavy snow  Heavy precipitations  Wind > 20 kt
SIGMETs :     Misc.  Thunderstorms  Icing  Turbulence  Mountain Waves  Volcanic Ashes







- Airport Elevation : 245 ft


ETHS - Fassberg

CURRENT METAR :
  • 200020Z VRB02KT 9999 BKN120 16/15 Q1008 RETS BLU

EXPIRED METARs :
  • 200008Z 11004KT 8000 BKN100 16/15 Q1007 RETS BLU
  • 192320Z 22006KT 5000 TSRA BKN060CB 17/16 Q1009 WHT
  • 192236Z 23013G29KT 5000 TSRA SCT020 BKN040CB 18/15 Q1010 WHT
  • 192227Z 23015KT 8000 TSRA SCT020 BKN040CB 19/14 Q1010 BLU
  • 192209Z 29012G22KT 9999 VCTS BKN070CB SCT140 19/14 Q1008 BLU

Expired Forecast.
No reported NOTAMs for that airfield.
2 SIGMETs reported for the Bremen FIR (EDWW) :
 
Embedded thunderstorms
EDWW SIGMET 11 VALID 192300/200100 EDZF
EDWW BREMEN FIR EMBD TS OBS WI N5329 E01014 - N5306 E01218 - N5149 E01308 - N5204 E01102 - N5235 E01001 - N5329 E01014 TOP FL380 MOV NNE NC=
SIGMET 11 cancelation
EDWW SIGMET 1 VALID 200031/200100 EDZF
EDWW BREMEN FIR CNL SIGMET 11 192300/200100=



MET'MAP, your aeronautical weather chart ! - Copyright ORBIFLY December 2007 - Disclaimer

ORBIFLY MET'MAP TEAM :

Programming & Development : Alexandra Zaïnal
Concept & Development : Baudouin d'Aumeries
Co-Development & Prog : Marc-Olivier Méhu
Technical & hardware support : Manuel Goepfert

Contact : metmap@orbifly.com




SOURCES & CREDITS :

   NOAA